| time (UTC) | temp F | wind direction | speed knots | gust knots | rain 1hr in | rain 24hr in | rain mn in | humidity % | barometer mb |
| 20260510114536 | 53 | 121 | 0.0 | 0.0 | 0.00 | 0.02 | 0.00 | 91 | 1011.9 |
| 20260510104633 | 50 | 98 | 0.0 | 0.0 | 0.00 | 0.02 | 0.00 | 90 | 1010.9 |
| 20260510101506 | 50 | 98 | 0.0 | 0.0 | 0.00 | 0.02 | 0.00 | 90 | 1010.5 |
| 20260510100017 | 51 | 98 | 0.0 | 0.0 | 0.00 | 0.02 | 0.00 | 89 | 1010.3 |
| 20260510091517 | 51 | 98 | 0.0 | 0.0 | 0.00 | 0.02 | 0.00 | 89 | 1010.1 |
| 20260510090101 | 52 | 98 | 0.0 | 0.0 | 0.00 | 0.02 | 0.00 | 89 | 1010.0 |
| 20260510084544 | 52 | 98 | 0.0 | 0.0 | 0.00 | 0.02 | 0.00 | 89 | 1009.9 |
| 20260510083006 | 52 | 98 | 0.0 | 0.0 | 0.00 | 0.02 | 0.00 | 88 | 1009.9 |
| 20260510081608 | 52 | 98 | 0.0 | 0.0 | 0.00 | 0.02 | 0.00 | 88 | 1009.7 |
| 20260510074602 | 52 | 98 | 0.0 | 0.0 | 0.00 | 0.02 | 0.00 | 87 | 1009.2 |
| 20260510074506 | 53 | 98 | 0.0 | 0.0 | 0.00 | 0.02 | 0.00 | 87 | 1009.2 |
| 20260510071512 | 53 | 98 | 0.0 | 0.0 | 0.00 | 0.02 | 0.00 | 87 | 1009.0 |
| 20260510070104 | 54 | 98 | 0.0 | 0.0 | 0.00 | 0.02 | 0.00 | 87 | 1008.9 |
| 20260510070002 | 54 | 98 | 0.0 | 0.0 | 0.00 | 0.02 | 0.00 | 87 | 1008.8 |
| 20260510063116 | 55 | 98 | 0.0 | 0.0 | 0.00 | 0.02 | 0.00 | 86 | 1008.7 |
| 20260510054537 | 56 | 98 | 0.0 | 0.0 | 0.00 | 0.02 | 0.00 | 85 | 1008.7 |
| 20260510053045 | 56 | 98 | 0.0 | 0.0 | 0.00 | 0.02 | 0.00 | 84 | 1008.8 |
| 20260510051512 | 56 | 98 | 0.0 | 0.0 | 0.00 | 0.02 | 0.00 | 84 | 1008.7 |
| 20260510050039 | 57 | 98 | 0.0 | 0.0 | 0.00 | 0.02 | 0.00 | 83 | 1008.7 |
| 20260510044638 | 57 | 98 | 0.0 | 0.0 | 0.00 | 0.02 | 0.00 | 82 | 1008.8 |
| 20260510043056 | 57 | 98 | 0.0 | 0.0 | 0.00 | 0.02 | 0.00 | 82 | 1008.9 |
| 20260510040150 | 59 | 98 | 0.0 | 0.0 | 0.00 | 0.02 | 0.00 | 81 | 1008.7 |
| 20260510034549 | 59 | 98 | 0.0 | 0.0 | 0.00 | 0.02 | 0.02 | 80 | 1008.7 |
| 20260510033124 | 60 | 98 | 0.0 | 0.0 | 0.00 | 0.02 | 0.02 | 79 | 1008.7 |
| 20260510031646 | 61 | 98 | 0.0 | 0.0 | 0.00 | 0.02 | 0.02 | 79 | 1008.7 |
| 20260510030126 | 61 | 98 | 0.0 | 0.0 | 0.00 | 0.02 | 0.02 | 78 | 1008.6 |
| 20260510024654 | 62 | 98 | 0.0 | 0.0 | 0.00 | 0.02 | 0.02 | 78 | 1008.5 |
| 20260510023021 | 62 | 98 | 0.0 | 0.0 | 0.00 | 0.02 | 0.02 | 78 | 1008.4 |
| 20260510020035 | 63 | 136 | 0.0 | 0.0 | 0.00 | 0.02 | 0.02 | 76 | 1008.1 |
| 20260510014553 | 64 | 136 | 0.0 | 0.0 | 0.00 | 0.02 | 0.02 | 75 | 1008.0 |
| 20260510013014 | 64 | 136 | 0.0 | 0.0 | 0.00 | 0.02 | 0.02 | 74 | 1007.7 |
| 20260510011627 | 65 | 136 | 0.0 | 0.0 | 0.00 | 0.02 | 0.02 | 73 | 1007.6 |
| 20260510010046 | 66 | 136 | 0.0 | 0.0 | 0.00 | 0.02 | 0.02 | 71 | 1007.4 |
| 20260510004622 | 67 | 136 | 0.0 | 0.0 | 0.00 | 0.02 | 0.02 | 69 | 1007.3 |
| 20260510003157 | 68 | 136 | 0.0 | 0.0 | 0.00 | 0.02 | 0.02 | 67 | 1007.2 |
| 20260510001630 | 69 | 136 | 0.0 | 0.0 | 0.00 | 0.02 | 0.02 | 64 | 1007.1 |
| 20260510000009 | 71 | 136 | 0.0 | 0.0 | 0.00 | 0.02 | 0.02 | 61 | 1007.0 |
| 20260509234635 | 72 | 136 | 0.0 | 0.0 | 0.00 | 0.02 | 0.02 | 57 | 1006.8 |
| 20260509233024 | 73 | 136 | 0.0 | 0.0 | 0.00 | 0.02 | 0.02 | 55 | 1006.7 |
| 20260509231555 | 73 | 136 | 0.0 | 0.0 | 0.00 | 0.02 | 0.02 | 52 | 1006.6 |
| 20260509224507 | 74 | 136 | 0.0 | 0.0 | 0.00 | 0.02 | 0.02 | 51 | 1006.6 |
| 20260509223154 | 74 | 184 | 0.0 | 0.0 | 0.00 | 0.02 | 0.02 | 51 | 1006.6 |
| 20260509221534 | 74 | 136 | 0.0 | 0.0 | 0.00 | 0.02 | 0.02 | 50 | 1006.6 |
| 20260509220009 | 75 | 147 | 0.0 | 0.0 | 0.00 | 0.02 | 0.02 | 49 | 1006.7 |
| 20260509213111 | 76 | 240 | 0.0 | 0.0 | 0.00 | 0.02 | 0.02 | 49 | 1006.7 |
| 20260509211546 | 77 | 206 | 0.0 | 0.0 | 0.00 | 0.02 | 0.02 | 47 | 1006.6 |
| 20260509210153 | 77 | 176 | 0.0 | 0.0 | 0.00 | 0.02 | 0.02 | 47 | 1006.5 |
| 20260509204520 | 76 | 128 | 0.0 | 0.0 | 0.00 | 0.02 | 0.02 | 48 | 1006.5 |
| 20260509203154 | 76 | 124 | 0.0 | 0.9 | 0.00 | 0.02 | 0.02 | 51 | 1006.3 |
| 20260509201655 | 76 | 101 | 0.0 | 0.0 | 0.00 | 0.02 | 0.02 | 51 | 1006.5 |
| 20260509200137 | 75 | 153 | 0.0 | 0.0 | 0.00 | 0.02 | 0.02 | 55 | 1006.9 |
| 20260509194507 | 73 | 136 | 0.0 | 0.0 | 0.00 | 0.02 | 0.02 | 58 | 1007.1 |
| 20260509193046 | 71 | 215 | 0.0 | 0.0 | 0.00 | 0.02 | 0.02 | 59 | 1007.5 |
| 20260509190013 | 69 | 119 | 0.0 | 0.0 | 0.02 | 0.02 | 0.02 | 69 | 1007.5 |
| 20260509183156 | 69 | 145 | 0.0 | 0.0 | 0.02 | 0.02 | 0.02 | 64 | 1008.1 |
| 20260509181515 | 71 | 121 | 0.0 | 0.0 | 0.00 | 0.00 | 0.00 | 53 | 1008.2 |
| 20260509180040 | 71 | 147 | 0.0 | 0.0 | 0.00 | 0.00 | 0.00 | 51 | 1008.4 |
| 20260509173038 | 72 | 256 | 0.0 | 0.0 | 0.00 | 0.00 | 0.00 | 53 | 1008.6 |
| 20260509171545 | 71 | 190 | 0.0 | 0.0 | 0.00 | 0.00 | 0.00 | 54 | 1008.8 |
| 20260509170054 | 70 | 227 | 0.0 | 0.0 | 0.00 | 0.00 | 0.00 | 53 | 1008.8 |
| 20260509164600 | 70 | 245 | 0.0 | 0.0 | 0.00 | 0.00 | 0.00 | 54 | 1009.0 |
| 20260509163006 | 69 | 241 | 0.0 | 0.0 | 0.00 | 0.00 | 0.00 | 54 | 1009.0 |
| 20260509161535 | 69 | 250 | 0.0 | 0.0 | 0.00 | 0.00 | 0.00 | 54 | 1009.0 |
| 20260509160050 | 70 | 232 | 0.0 | 0.9 | 0.00 | 0.00 | 0.00 | 55 | 1009.2 |
| 20260509154557 | 70 | 294 | 0.0 | 0.0 | 0.00 | 0.00 | 0.00 | 54 | 1009.4 |
| 20260509153114 | 70 | 121 | 0.0 | 0.0 | 0.00 | 0.00 | 0.00 | 55 | 1009.4 |
| 20260509150017 | 66 | 214 | 0.0 | 0.0 | 0.00 | 0.00 | 0.00 | 61 | 1009.8 |
| 20260509144501 | 65 | 148 | 0.0 | 0.0 | 0.00 | 0.00 | 0.00 | 63 | 1010.2 |
| 20260509141603 | 63 | 183 | 0.0 | 0.0 | 0.00 | 0.00 | 0.00 | 63 | 1010.4 |
| 20260509140106 | 63 | 161 | 0.0 | 0.0 | 0.00 | 0.00 | 0.00 | 64 | 1010.2 |
| 20260509134511 | 62 | 118 | 0.0 | 0.0 | 0.00 | 0.00 | 0.00 | 64 | 1010.4 |
| 20260509133036 | 62 | 103 | 0.0 | 0.0 | 0.00 | 0.00 | 0.00 | 64 | 1010.4 |
| 20260509124607 | 61 | 114 | 0.0 | 0.9 | 0.00 | 0.00 | 0.00 | 63 | 1010.4 |
| 20260509124501 | 61 | 178 | 0.0 | 0.9 | 0.00 | 0.00 | 0.00 | 63 | 1010.4 |
| 20260509123033 | 61 | 167 | 0.0 | 0.0 | 0.00 | 0.00 | 0.00 | 64 | 1010.3 |
| 20260509121557 | 61 | 236 | 0.0 | 0.0 | 0.00 | 0.00 | 0.00 | 64 | 1010.5 |